Priego, Spain
Current Conditions -  °F | °C
As of 11:30 PM on Friday 24 Oct 2014 (Local Time) from LETL Reporting Station
Clear Clear  
Wind Chill: 52°   Ceiling: Unl
Heat Index: 52°   Visibility: 6mi
Dew Point: 39°   Wind: 6mph
Humidity: 62%   Direction: 300°WNW
Pressure: 30.21"   Gusts: NA
Location:  40.45°N, 2.3°W
Report Text: LETL 242130Z AUTO 30005KT CAVOK 11/04 Q1023
Loading
Personal Weather Stations






























Interactive Weather Map
Tropical Storm Tracking
New forecast layout! Learn more

10-Day Weather Forecast

Advertisements
Track Severe Weather on mobile